createdAt,value
2018-06-22T00:02:15.410Z,2.50
2018-06-22T00:04:44.868Z,2.27
2018-06-22T00:07:14.479Z,2.40
2018-06-22T00:09:44.267Z,2.23
2018-06-22T00:12:13.801Z,2.13
2018-06-22T00:14:43.395Z,2.40
2018-06-22T00:17:13.081Z,2.40
2018-06-22T00:19:42.591Z,2.30
2018-06-22T00:22:11.926Z,2.17
2018-06-22T00:24:41.458Z,2.30
2018-06-22T00:27:10.953Z,2.30
2018-06-22T00:29:40.429Z,2.03
2018-06-22T00:32:10.125Z,2.27
2018-06-22T00:34:39.513Z,2.00
2018-06-22T00:37:08.909Z,2.17
2018-06-22T00:39:38.431Z,1.90
2018-06-22T00:42:07.798Z,1.60
2018-06-22T00:44:37.331Z,1.60
2018-06-22T00:47:06.865Z,1.60
2018-06-22T00:49:36.353Z,1.30
2018-06-22T00:52:05.962Z,1.60
2018-06-22T00:54:35.376Z,2.00
2018-06-22T00:57:04.877Z,1.50
2018-06-22T00:59:34.297Z,1.80
2018-06-22T01:02:04.079Z,1.27
2018-06-22T01:04:33.539Z,1.33
2018-06-22T01:07:02.997Z,1.40
2018-06-22T01:09:32.657Z,1.43
2018-06-22T01:12:02.118Z,2.03
2018-06-22T01:14:31.529Z,1.60
2018-06-22T01:17:01.091Z,1.80
2018-06-22T01:19:30.563Z,1.47
2018-06-22T01:22:00.076Z,1.60
2018-06-22T01:24:29.750Z,1.63
2018-06-22T01:26:59.271Z,1.27
2018-06-22T01:29:31.255Z,1.33
2018-06-22T01:32:01.934Z,1.13
2018-06-22T01:34:31.392Z,1.20
2018-06-22T01:37:01.008Z,1.10
2018-06-22T01:39:30.639Z,1.37
2018-06-22T01:42:00.168Z,1.10
2018-06-22T01:44:29.603Z,1.07
2018-06-22T01:46:59.088Z,1.00
2018-06-22T01:49:30.695Z,1.47
2018-06-22T01:52:00.165Z,1.57
2018-06-22T01:54:29.738Z,1.00
2018-06-22T01:56:59.415Z,1.00
2018-06-22T01:59:28.832Z,1.30
2018-06-22T02:01:58.334Z,1.10
2018-06-22T02:04:27.848Z,1.20
2018-06-22T02:06:57.348Z,1.13
2018-06-22T02:09:26.876Z,1.30
2018-06-22T02:11:56.403Z,1.10
2018-06-22T02:14:25.993Z,1.30
2018-06-22T02:16:55.342Z,1.40
2018-06-22T02:19:24.898Z,1.50
2018-06-22T02:21:54.451Z,1.40
2018-06-22T02:24:23.914Z,1.60
2018-06-22T02:26:53.487Z,1.50
2018-06-22T02:29:22.938Z,1.53
2018-06-22T02:31:52.346Z,1.60
2018-06-22T02:34:21.816Z,1.50
2018-06-22T02:36:51.277Z,1.50
2018-06-22T02:39:20.821Z,1.80
2018-06-22T02:41:50.228Z,1.60
2018-06-22T02:44:19.801Z,1.83
2018-06-22T02:46:49.398Z,1.77
2018-06-22T02:49:19.025Z,2.00
2018-06-22T02:51:48.659Z,1.90
2018-06-22T02:54:18.244Z,1.70
2018-06-22T02:56:47.778Z,1.50
2018-06-22T02:59:17.407Z,1.73
2018-06-22T03:01:46.850Z,1.60
2018-06-22T03:04:16.390Z,1.40
2018-06-22T03:06:45.879Z,2.10
2018-06-22T03:09:15.318Z,1.73
2018-06-22T03:11:45.023Z,1.97
2018-06-22T03:14:14.517Z,1.90
2018-06-22T03:16:44.144Z,1.70
2018-06-22T03:19:13.654Z,1.53
2018-06-22T03:21:43.140Z,1.60
2018-06-22T03:24:12.645Z,1.63
2018-06-22T03:26:42.402Z,1.60
2018-06-22T03:29:11.877Z,1.70
2018-06-22T03:31:41.385Z,2.13
2018-06-22T03:34:11.015Z,1.90
2018-06-22T03:36:40.492Z,1.97
2018-06-22T03:39:10.401Z,1.93
2018-06-22T03:41:39.763Z,1.80
2018-06-22T03:44:09.435Z,1.87
2018-06-22T03:46:38.840Z,1.93
2018-06-22T03:49:08.400Z,1.90
2018-06-22T03:51:38.003Z,1.80
2018-06-22T03:54:07.474Z,2.00
2018-06-22T03:56:38.024Z,2.20
2018-06-22T03:59:07.445Z,1.93
2018-06-22T04:01:36.908Z,1.90
2018-06-22T04:04:06.339Z,1.87
2018-06-22T04:06:36.709Z,1.93
2018-06-22T04:09:08.088Z,1.87
2018-06-22T04:11:37.620Z,2.33
2018-06-22T04:14:07.224Z,2.00
2018-06-22T04:16:36.722Z,1.70
2018-06-22T04:19:06.284Z,1.70
2018-06-22T04:21:35.783Z,1.60
2018-06-22T04:24:05.322Z,1.83
2018-06-22T04:26:34.767Z,1.50
2018-06-22T04:29:04.165Z,1.97
2018-06-22T04:31:33.729Z,1.67
2018-06-22T04:34:03.217Z,1.50
2018-06-22T04:36:32.700Z,1.77
2018-06-22T04:39:02.240Z,1.60
2018-06-22T04:41:31.690Z,1.60
2018-06-22T04:44:01.141Z,1.70
2018-06-22T04:46:30.571Z,1.90
2018-06-22T04:49:00.162Z,1.80
2018-06-22T04:51:30.258Z,1.60
2018-06-22T04:53:59.904Z,1.40
2018-06-22T04:56:29.729Z,1.40
2018-06-22T04:58:59.217Z,1.43
2018-06-22T05:01:29.041Z,1.60
2018-06-22T05:03:58.528Z,1.70
2018-06-22T05:06:28.109Z,1.70
2018-06-22T05:08:57.691Z,1.17
2018-06-22T05:11:27.438Z,1.60
2018-06-22T05:13:56.913Z,1.30
2018-06-22T05:16:26.368Z,1.30
2018-06-22T05:18:55.794Z,1.50
2018-06-22T05:21:25.425Z,1.20
2018-06-22T05:23:54.947Z,1.13
2018-06-22T05:26:24.417Z,1.13
2018-06-22T05:28:54.047Z,1.00
2018-06-22T05:31:23.676Z,1.00
2018-06-22T05:33:55.053Z,1.33
2018-06-22T05:36:24.551Z,1.00
2018-06-22T05:38:54.010Z,1.60
2018-06-22T05:41:23.485Z,1.70
2018-06-22T05:43:53.362Z,1.13
2018-06-22T05:46:22.924Z,0.93
2018-06-22T05:48:52.472Z,1.43
2018-06-22T05:51:21.999Z,0.83
2018-06-22T05:53:51.500Z,1.37
2018-06-22T05:56:21.048Z,1.10
2018-06-22T06:00:09.588Z,1.30
2018-06-22T06:02:38.998Z,0.83
2018-06-22T06:05:08.392Z,1.20
2018-06-22T06:07:38.863Z,1.10
2018-06-22T06:10:08.380Z,1.07
2018-06-22T06:12:37.931Z,1.17
2018-06-22T06:15:07.474Z,1.60
2018-06-22T06:17:36.941Z,1.30
2018-06-22T06:20:07.881Z,1.13
2018-06-22T06:22:37.335Z,1.27
2018-06-22T06:25:07.057Z,0.80
2018-06-22T06:27:36.923Z,1.10
2018-06-22T06:30:06.676Z,1.03
2018-06-22T06:32:36.059Z,1.50
2018-06-22T06:35:05.502Z,1.10
2018-06-22T06:37:35.161Z,1.00
2018-06-22T06:40:04.971Z,0.70
2018-06-22T06:42:34.444Z,1.10
2018-06-22T06:45:03.956Z,1.23
2018-06-22T06:47:33.402Z,0.90
2018-06-22T06:50:02.877Z,1.00
2018-06-22T06:52:32.507Z,1.10
2018-06-22T06:55:02.017Z,0.60
2018-06-22T06:57:31.537Z,1.13
2018-06-22T07:00:01.708Z,0.93
2018-06-22T07:02:31.172Z,1.20
2018-06-22T07:05:00.642Z,1.20
2018-06-22T07:07:30.169Z,1.00
2018-06-22T07:09:59.629Z,1.07
2018-06-22T07:12:28.983Z,1.20
2018-06-22T07:14:58.493Z,1.13
2018-06-22T07:17:28.041Z,1.40
2018-06-22T07:19:57.608Z,1.63
2018-06-22T07:22:29.058Z,1.30
2018-06-22T07:24:58.680Z,0.80
2018-06-22T07:27:28.150Z,1.03
2018-06-22T07:29:57.682Z,1.57
2018-06-22T07:32:27.161Z,1.00
2018-06-22T07:34:56.551Z,1.47
2018-06-22T07:37:26.124Z,1.33
2018-06-22T07:39:55.697Z,1.20
2018-06-22T07:42:25.271Z,1.23
2018-06-22T07:44:54.692Z,0.80
2018-06-22T07:47:24.118Z,1.00
2018-06-22T07:49:53.624Z,1.20
2018-06-22T07:52:23.086Z,1.37
2018-06-22T07:54:52.744Z,0.90
2018-06-22T07:57:22.300Z,1.30
2018-06-22T07:59:51.829Z,1.10
2018-06-22T08:02:21.408Z,0.80
2018-06-22T08:04:50.912Z,1.27
2018-06-22T08:07:20.541Z,0.70
2018-06-22T08:09:50.013Z,0.90
2018-06-22T08:12:19.629Z,1.40
2018-06-22T08:14:50.102Z,1.37
2018-06-22T08:17:20.648Z,1.13
2018-06-22T08:19:50.590Z,1.30
2018-06-22T08:22:20.229Z,1.10
2018-06-22T08:24:49.723Z,0.90
2018-06-22T08:27:19.123Z,1.20
2018-06-22T08:29:48.611Z,1.17
2018-06-22T08:32:18.220Z,0.93
2018-06-22T08:34:47.738Z,1.30
2018-06-22T08:37:17.245Z,1.50
2018-06-22T08:39:46.761Z,1.67
2018-06-22T08:42:16.131Z,1.77
2018-06-22T08:44:45.648Z,1.63
2018-06-22T08:47:15.113Z,2.13
2018-06-22T08:49:44.864Z,2.20
2018-06-22T08:52:14.368Z,1.77
2018-06-22T08:54:43.817Z,1.90
2018-06-22T08:57:13.390Z,1.40
2018-06-22T08:59:43.210Z,1.17
2018-06-22T09:02:12.582Z,1.30
2018-06-22T09:04:41.887Z,0.90
2018-06-22T09:07:11.348Z,1.20
2018-06-22T09:09:40.914Z,1.07
2018-06-22T09:12:10.613Z,1.03
2018-06-22T09:15:43.667Z,1.50
2018-06-22T09:18:13.186Z,1.23
2018-06-22T09:20:42.693Z,0.97
2018-06-22T09:23:12.222Z,1.10
2018-06-22T09:25:41.898Z,0.93
2018-06-22T09:28:11.332Z,1.17
2018-06-22T09:30:40.968Z,0.80
2018-06-22T09:33:10.424Z,1.10
2018-06-22T09:35:39.957Z,1.30
2018-06-22T09:38:09.613Z,1.03
2018-06-22T09:40:39.183Z,1.30
2018-06-22T09:43:08.684Z,1.10
2018-06-22T09:45:38.177Z,1.17
2018-06-22T09:48:07.588Z,1.07
2018-06-22T09:50:37.241Z,1.57
2018-06-22T09:53:06.814Z,1.77
2018-06-22T09:55:36.250Z,1.23
2018-06-22T09:58:05.760Z,0.93
2018-06-22T10:00:35.270Z,1.27
2018-06-22T10:03:04.807Z,1.30
2018-06-22T10:05:34.222Z,1.40
2018-06-22T10:08:03.793Z,1.70
2018-06-22T10:10:33.372Z,1.30
2018-06-22T10:13:02.788Z,1.30
2018-06-22T10:15:32.246Z,1.60
2018-06-22T10:18:01.808Z,1.40
2018-06-22T10:20:32.266Z,1.67
2018-06-22T10:23:01.766Z,1.40
2018-06-22T10:25:31.369Z,2.00
2018-06-22T10:28:00.874Z,1.90
2018-06-22T10:30:30.335Z,1.87
2018-06-22T10:32:59.789Z,1.90
2018-06-22T10:35:29.458Z,1.50
2018-06-22T10:37:58.933Z,1.40
2018-06-22T10:40:28.394Z,1.60
2018-06-22T10:42:57.892Z,0.93
2018-06-22T10:45:27.583Z,1.00
2018-06-22T10:52:45.237Z,0.93
2018-06-22T10:55:15.116Z,1.00
2018-06-22T10:57:44.590Z,1.47
2018-06-22T11:00:14.121Z,1.10
2018-06-22T11:02:43.680Z,1.30
2018-06-22T11:05:13.173Z,1.47
2018-06-22T11:07:42.623Z,1.37
2018-06-22T11:10:12.218Z,2.00
2018-06-22T11:12:41.752Z,1.83
2018-06-22T11:15:11.314Z,2.10
2018-06-22T11:17:40.840Z,2.20
2018-06-22T11:20:10.445Z,1.70
2018-06-22T11:22:40.049Z,1.93
2018-06-22T11:25:09.598Z,1.70
2018-06-22T11:27:39.069Z,1.80
2018-06-22T11:30:08.668Z,1.80
2018-06-22T11:32:38.219Z,1.67
2018-06-22T11:35:07.772Z,2.17
2018-06-22T11:37:37.245Z,2.20
2018-06-22T11:40:06.955Z,2.60
2018-06-22T11:42:36.325Z,1.60
2018-06-22T11:45:05.884Z,1.70
2018-06-22T11:47:35.236Z,2.23
2018-06-22T11:50:04.936Z,2.17
2018-06-22T11:52:34.368Z,2.10
2018-06-22T11:55:04.117Z,1.87
2018-06-22T11:57:33.640Z,2.10
2018-06-22T12:00:03.122Z,1.83
2018-06-22T12:02:32.479Z,2.27
2018-06-22T12:05:02.019Z,2.17
2018-06-22T12:07:31.603Z,2.00
2018-06-22T12:10:01.226Z,2.10
2018-06-22T12:12:30.874Z,1.80
2018-06-22T12:15:00.488Z,2.20
2018-06-22T12:17:29.950Z,2.10
2018-06-22T12:19:59.552Z,2.17
2018-06-22T12:22:29.126Z,2.62
2018-06-22T12:24:58.408Z,2.60
2018-06-22T12:27:27.836Z,2.50
2018-06-22T12:29:57.687Z,1.93
2018-06-22T12:32:27.082Z,1.50
2018-06-22T12:34:56.494Z,1.80
2018-06-22T12:37:25.963Z,1.60
2018-06-22T12:39:55.555Z,1.60
2018-06-22T12:42:25.196Z,1.67
2018-06-22T12:44:54.837Z,1.63
2018-06-22T12:47:24.198Z,1.63
2018-06-22T12:49:53.845Z,1.60
2018-06-22T12:52:24.426Z,1.50
2018-06-22T12:54:54.118Z,1.70
2018-06-22T12:57:23.639Z,1.60
2018-06-22T12:59:53.232Z,1.60
2018-06-22T13:02:22.573Z,1.60
2018-06-22T13:04:52.085Z,1.83
2018-06-22T13:07:21.576Z,1.53
2018-06-22T13:09:50.962Z,1.80
2018-06-22T13:12:20.506Z,1.73
2018-06-22T13:14:50.025Z,1.60
2018-06-22T13:17:19.346Z,1.80
2018-06-22T13:19:48.937Z,1.70
2018-06-22T13:22:18.798Z,1.60
2018-06-22T13:24:48.084Z,1.60
2018-06-22T13:27:17.402Z,1.40
2018-06-22T13:29:46.880Z,1.80
2018-06-22T13:32:16.354Z,1.90
2018-06-22T13:34:45.993Z,1.80
2018-06-22T13:37:15.522Z,1.80
2018-06-22T13:39:44.984Z,1.30
2018-06-22T13:42:14.285Z,1.90
2018-06-22T13:44:43.756Z,1.83
2018-06-22T13:47:13.393Z,1.70
2018-06-22T13:49:42.681Z,1.60
2018-06-22T13:52:12.237Z,1.60
2018-06-22T13:54:41.821Z,1.60
2018-06-22T13:57:11.541Z,1.70
2018-06-22T13:59:40.874Z,1.33
2018-06-22T14:02:10.470Z,1.80
2018-06-22T14:04:44.888Z,1.57
2018-06-22T14:07:14.071Z,1.57
2018-06-22T14:09:44.113Z,1.53
2018-06-22T14:12:13.548Z,1.57
2018-06-22T14:14:43.057Z,1.70
2018-06-22T14:17:12.518Z,1.30
2018-06-22T14:19:41.970Z,1.80
2018-06-22T14:22:11.465Z,1.63
2018-06-22T14:24:41.056Z,1.50
2018-06-22T14:27:10.573Z,1.90
2018-06-22T14:29:40.179Z,1.67
2018-06-22T14:32:09.653Z,1.60
2018-06-22T14:34:39.231Z,1.30
2018-06-22T14:37:08.693Z,1.20
2018-06-22T14:39:38.202Z,1.10
2018-06-22T14:42:07.786Z,1.30
2018-06-22T14:44:37.080Z,1.10
2018-06-22T14:47:06.416Z,1.30
2018-06-22T14:49:36.088Z,1.20
2018-06-22T14:52:05.771Z,1.23
2018-06-22T14:54:40.369Z,1.20
2018-06-22T14:57:15.198Z,1.30
2018-06-22T14:59:49.691Z,1.30
2018-06-22T15:02:24.267Z,1.37
2018-06-22T15:04:59.013Z,1.43
2018-06-22T15:07:33.524Z,1.50
2018-06-22T15:10:03.055Z,1.50
2018-06-22T15:12:32.764Z,1.53
2018-06-22T15:15:02.118Z,1.50
2018-06-22T15:17:35.641Z,1.63
2018-06-22T15:20:05.338Z,1.20
2018-06-22T15:22:34.861Z,1.90
2018-06-22T15:25:04.252Z,1.20
2018-06-22T15:27:33.821Z,1.00
2018-06-22T15:30:03.250Z,1.20
2018-06-22T15:32:32.944Z,1.00
2018-06-22T15:35:07.374Z,1.10
2018-06-22T15:37:41.993Z,1.20
2018-06-22T15:40:16.672Z,1.07
2018-06-22T15:42:51.179Z,0.90
2018-06-22T15:45:25.857Z,2.50
2018-06-22T15:48:01.229Z,1.27
2018-06-22T15:50:35.531Z,1.10
2018-06-22T15:53:10.331Z,1.00
2018-06-22T15:55:44.429Z,1.20
2018-06-22T15:58:13.902Z,1.10
2018-06-22T16:00:43.362Z,1.13
2018-06-22T16:03:18.964Z,1.07
2018-06-22T16:05:48.494Z,1.07
2018-06-22T16:08:17.995Z,1.00
2018-06-22T16:10:47.737Z,0.90
2018-06-22T16:13:21.015Z,1.10
2018-06-22T16:15:55.835Z,1.00
2018-06-22T16:18:30.209Z,1.00
2018-06-22T16:21:04.810Z,1.10
2018-06-22T16:23:39.513Z,1.30
2018-06-22T16:27:17.072Z,1.10
2018-06-22T16:29:46.613Z,1.10
2018-06-22T16:32:16.374Z,0.90
2018-06-22T16:34:45.925Z,0.70
2018-06-22T16:37:15.445Z,0.80
2018-06-22T16:39:45.011Z,0.90
2018-06-22T16:42:17.200Z,0.90
2018-06-22T16:44:46.745Z,1.00
2018-06-22T16:47:16.270Z,0.90
2018-06-22T16:49:46.874Z,0.93
2018-06-22T16:52:16.351Z,1.00
2018-06-22T16:54:45.791Z,0.87
2018-06-22T16:57:15.280Z,0.83
2018-06-22T16:59:44.791Z,0.97
2018-06-22T17:02:14.173Z,0.90
2018-06-22T17:04:43.643Z,1.10
2018-06-22T17:07:18.234Z,1.20
2018-06-22T17:09:52.820Z,1.90
2018-06-22T17:12:27.374Z,1.00
2018-06-22T17:15:02.010Z,2.27
2018-06-22T17:17:36.418Z,1.27
2018-06-22T17:20:06.236Z,3.58
2018-06-22T17:22:35.779Z,1.37
2018-06-22T17:25:05.440Z,1.20
2018-06-22T17:27:35.883Z,1.10
2018-06-22T17:30:06.820Z,1.10
2018-06-22T17:32:36.224Z,1.10
2018-06-22T17:35:06.138Z,1.00
2018-06-22T17:37:35.516Z,1.30
2018-06-22T17:40:05.947Z,2.75
2018-06-22T17:42:35.275Z,1.80
2018-06-22T17:45:04.688Z,1.30
2018-06-22T17:47:34.261Z,1.30
2018-06-22T17:50:08.818Z,2.10
2018-06-22T17:52:38.312Z,3.20
2018-06-22T17:55:07.802Z,3.10
2018-06-22T17:57:37.351Z,2.70
2018-06-22T18:00:11.952Z,2.17
2018-06-22T18:02:46.353Z,1.60
2018-06-22T18:05:20.797Z,1.90
2018-06-22T18:07:50.560Z,5.43
2018-06-22T18:10:26.003Z,6.40
2018-06-22T18:12:58.016Z,5.33
2018-06-22T18:15:27.387Z,16.17
2018-06-22T18:17:56.879Z,32.93
2018-06-22T18:20:26.463Z,18.40
2018-06-22T18:22:56.162Z,12.57
2018-06-22T18:25:25.607Z,9.00
2018-06-22T18:27:54.864Z,7.13
2018-06-22T18:30:24.392Z,6.57
2018-06-22T18:32:53.715Z,8.17
2018-06-22T18:35:23.154Z,6.70
2018-06-22T18:37:52.564Z,11.13
2018-06-22T18:40:22.039Z,7.60
2018-06-22T18:42:51.487Z,2.47
2018-06-22T18:45:21.112Z,1.67
2018-06-22T18:47:51.456Z,1.47
2018-06-22T18:50:22.101Z,1.53
2018-06-22T18:52:56.721Z,3.00
2018-06-22T18:55:31.121Z,2.00
2018-06-22T18:58:05.617Z,1.73
2018-06-22T19:00:40.045Z,2.00
2018-06-22T19:03:14.415Z,2.00
2018-06-22T19:05:44.033Z,2.13
2018-06-22T19:08:15.178Z,2.23
2018-06-22T19:10:44.897Z,3.20
2018-06-22T19:13:14.452Z,2.07
2018-06-22T19:15:44.962Z,2.43
2018-06-22T19:18:14.497Z,9.20
2018-06-22T19:20:44.113Z,2.10
2018-06-22T19:23:13.658Z,2.20
2018-06-22T19:25:43.330Z,2.37
2018-06-22T19:28:12.902Z,11.37
2018-06-22T19:30:42.363Z,12.87
2018-06-22T19:33:11.973Z,6.00
2018-06-22T19:35:41.384Z,3.70
2018-06-22T19:38:10.753Z,3.27
2018-06-22T19:40:40.207Z,4.53
2018-06-22T19:43:13.850Z,5.63
2018-06-22T19:45:48.526Z,2.33
2018-06-22T19:48:25.387Z,2.30
2018-06-22T19:51:00.290Z,2.20
2018-06-22T19:53:34.692Z,2.40
2018-06-22T19:56:04.179Z,2.80
2018-06-22T19:58:33.633Z,2.57
2018-06-22T20:01:03.042Z,2.80
2018-06-22T20:03:32.606Z,4.23
2018-06-22T20:06:01.972Z,3.87
2018-06-22T20:08:31.448Z,2.33
2018-06-22T20:11:00.964Z,2.47
2018-06-22T20:13:30.597Z,2.57
2018-06-22T20:15:59.948Z,2.57
2018-06-22T20:18:29.399Z,2.37
2018-06-22T20:20:58.919Z,2.60
2018-06-22T20:23:28.627Z,2.37
2018-06-22T20:25:58.274Z,2.20
2018-06-22T20:28:27.897Z,2.37
2018-06-22T20:30:57.344Z,2.40
2018-06-22T20:33:27.001Z,2.20
2018-06-22T20:36:01.666Z,2.07
2018-06-22T20:38:36.089Z,2.43
2018-06-22T20:41:10.479Z,2.13
2018-06-22T20:43:45.098Z,2.37
2018-06-22T20:46:18.547Z,2.70
2018-06-22T20:48:53.032Z,2.67
2018-06-22T20:51:22.389Z,2.90
2018-06-22T20:53:51.939Z,2.77
2018-06-22T20:56:21.585Z,2.63
2018-06-22T20:58:50.894Z,2.80
2018-06-22T21:01:20.317Z,3.00
2018-06-22T21:03:50.844Z,2.97
2018-06-22T21:06:20.456Z,3.53
2018-06-22T21:08:49.980Z,3.20
2018-06-22T21:11:19.469Z,3.60
2018-06-22T21:13:49.001Z,3.50
2018-06-22T21:16:18.590Z,3.63
2018-06-22T21:18:48.251Z,4.10
2018-06-22T21:21:22.663Z,4.03
2018-06-22T21:23:52.288Z,4.07
2018-06-22T21:26:21.947Z,4.60
2018-06-22T21:28:56.425Z,4.20
2018-06-22T21:31:31.319Z,4.03
2018-06-22T21:34:05.880Z,4.30
2018-06-22T21:36:40.244Z,4.97
2018-06-22T21:39:11.895Z,4.53
2018-06-22T21:41:41.279Z,4.60
2018-06-22T21:44:10.974Z,4.60
2018-06-22T21:46:40.501Z,4.70
2018-06-22T21:49:10.062Z,4.40
2018-06-22T21:51:39.608Z,4.90
2018-06-22T21:54:09.172Z,4.33
2018-06-22T21:56:38.563Z,4.43
2018-06-22T21:59:07.933Z,5.10
2018-06-22T22:01:37.505Z,5.20
2018-06-22T22:04:06.994Z,5.13
2018-06-22T22:06:36.520Z,5.23
2018-06-22T22:09:08.494Z,5.43
2018-06-22T22:11:43.019Z,5.43
2018-06-22T22:14:12.537Z,5.43
2018-06-22T22:16:41.859Z,6.23
2018-06-22T22:19:12.379Z,5.43
2018-06-22T22:21:42.010Z,5.53
2018-06-22T22:24:11.584Z,5.63
2018-06-22T22:26:41.122Z,5.57
2018-06-22T22:29:11.314Z,5.67
2018-06-22T22:31:40.895Z,5.13
2018-06-22T22:34:10.315Z,4.60
2018-06-22T22:36:39.695Z,5.07
2018-06-22T22:39:09.088Z,5.07
2018-06-22T22:41:38.705Z,4.90
2018-06-22T22:44:08.498Z,5.30
2018-06-22T22:46:37.950Z,5.20
2018-06-22T22:49:07.505Z,5.27
2018-06-22T22:51:36.898Z,5.60
2018-06-22T22:54:06.399Z,5.30
2018-06-22T22:56:35.881Z,5.70
2018-06-22T22:59:05.536Z,5.93
2018-06-22T23:01:35.112Z,6.20
2018-06-22T23:04:04.538Z,6.03
2018-06-22T23:06:34.152Z,5.60
2018-06-22T23:09:04.404Z,5.73
2018-06-22T23:11:33.792Z,6.60
2018-06-22T23:14:03.378Z,6.27
2018-06-22T23:16:32.769Z,5.77
2018-06-22T23:19:02.338Z,6.43
2018-06-22T23:21:31.872Z,6.33
2018-06-22T23:24:01.215Z,6.00
2018-06-22T23:26:30.767Z,6.00
2018-06-22T23:29:00.364Z,6.60
2018-06-22T23:31:29.950Z,6.03
2018-06-22T23:33:59.423Z,6.20
2018-06-22T23:36:28.895Z,6.03
2018-06-22T23:38:58.549Z,6.00
2018-06-22T23:41:28.087Z,5.83
2018-06-22T23:43:57.628Z,6.23
2018-06-22T23:46:27.037Z,6.13
2018-06-22T23:48:56.492Z,6.80
2018-06-22T23:51:25.938Z,5.93
2018-06-22T23:53:55.738Z,6.60
2018-06-22T23:56:25.554Z,5.63
2018-06-22T23:58:55.063Z,5.87
